Time;durP1;ratioP1;P1;durP2;ratioP2;P2;SDS_P1;SDS_P2;PMS_P1;PMS_P2;Temp;Humidity;BMP_temperature;BMP_pressure;BME280_temperature;BME280_humidity;BME280_pressure;Samples;Min_cycle;Max_cycle;Signal;HPM_P1;HPM_P2
2023/05/15 00:00:38;;;;;;;15.00;9.95;;;;;;;;;;5022085;28;20855;-71
2023/05/15 00:03:04;;;;;;;16.45;10.80;;;;;;;;;;5022765;28;20045;-72
2023/05/15 00:05:29;;;;;;;15.65;11.30;;;;;;;;;;5017200;28;20069;-71
2023/05/15 00:07:55;;;;;;;15.43;10.18;;;;;;;;;;5022571;28;20055;-71
2023/05/15 00:10:20;;;;;;;14.45;9.00;;;;;;;;;;5022798;28;20076;-71
2023/05/15 00:12:46;;;;;;;12.85;8.65;;;;;;;;;;5021473;28;20045;-71
2023/05/15 00:15:11;;;;;;;12.38;8.50;;;;;;;;;;5022181;28;20156;-71
2023/05/15 00:17:37;;;;;;;10.45;7.22;;;;;;;;;;5022301;28;20045;-71
2023/05/15 00:20:04;;;;;;;10.65;7.93;;;;;;;;;;5022685;28;20494;-71
2023/05/15 00:22:29;;;;;;;10.25;7.97;;;;;;;;;;5021736;28;20052;-71
2023/05/15 00:24:55;;;;;;;10.70;7.80;;;;;;;;;;5021043;28;20406;-71
2023/05/15 00:27:20;;;;;;;8.48;6.75;;;;;;;;;;5021419;28;20093;-72
2023/05/15 00:29:45;;;;;;;9.30;6.70;;;;;;;;;;5021959;28;20075;-70
2023/05/15 00:32:11;;;;;;;11.43;6.97;;;;;;;;;;5037765;28;20041;-69
2023/05/15 00:34:36;;;;;;;8.95;6.88;;;;;;;;;;5019852;28;20141;-70
2023/05/15 00:37:02;;;;;;;10.75;7.13;;;;;;;;;;5034560;28;21089;-70
2023/05/15 00:39:27;;;;;;;9.23;6.90;;;;;;;;;;5020290;28;20490;-70
2023/05/15 00:41:55;;;;;;;9.60;7.57;;;;;;;;;;5021578;28;20152;-69
2023/05/15 00:44:22;;;;;;;11.20;7.43;;;;;;;;;;5020674;28;20068;-70
2023/05/15 00:46:48;;;;;;;11.90;6.88;;;;;;;;;;5032975;28;20419;-69
2023/05/15 00:49:14;;;;;;;13.13;7.65;;;;;;;;;;5017994;28;20045;-69
2023/05/15 00:51:43;;;;;;;10.15;7.97;;;;;;;;;;5021677;28;20057;-70
2023/05/15 00:54:10;;;;;;;9.80;7.05;;;;;;;;;;5036862;28;20049;-70
2023/05/15 00:56:36;;;;;;;9.93;7.35;;;;;;;;;;5019821;28;20132;-70
2023/05/15 00:59:06;;;;;;;8.85;7.00;;;;;;;;;;5022185;28;20152;-70
2023/05/15 01:01:33;;;;;;;8.90;6.60;;;;;;;;;;5021249;28;20119;-70
2023/05/15 01:04:03;;;;;;;12.60;7.25;;;;;;;;;;5036622;28;20491;-69
2023/05/15 01:06:30;;;;;;;8.43;6.20;;;;;;;;;;5036491;28;20139;-70
2023/05/15 01:08:58;;;;;;;9.43;7.10;;;;;;;;;;5021972;28;20868;-70
2023/05/15 01:11:34;;;;;;;8.65;6.43;;;;;;;;;;5014415;28;20188;-70
2023/05/15 01:14:03;;;;;;;10.32;7.43;;;;;;;;;;5015516;28;20509;-70
2023/05/15 01:16:29;;;;;;;13.38;7.72;;;;;;;;;;5020410;28;20564;-70
2023/05/15 01:18:54;;;;;;;11.30;7.35;;;;;;;;;;5020679;28;20037;-69
2023/05/15 01:22:03;;;;;;;9.60;7.35;;;;;;;;;;5021476;28;20041;-70
2023/05/15 01:24:58;;;;;;;16.38;8.23;;;;;;;;;;5002512;28;20050;-69
2023/05/15 01:27:32;;;;;;;11.85;7.88;;;;;;;;;;5018225;28;20526;-70
2023/05/15 01:30:19;;;;;;;11.15;8.15;;;;;;;;;;5016651;28;20064;-70
2023/05/15 01:33:15;;;;;;;11.93;8.68;;;;;;;;;;5018198;28;20041;-70
2023/05/15 01:36:30;;;;;;;12.18;8.40;;;;;;;;;;5017167;28;20060;-69
2023/05/15 01:38:59;;;;;;;17.95;9.95;;;;;;;;;;4999205;28;20045;-69
2023/05/15 01:41:40;;;;;;;13.90;9.57;;;;;;;;;;5019570;28;20045;-70
2023/05/15 01:44:48;;;;;;;17.33;10.68;;;;;;;;;;5034153;28;20045;-70
2023/05/15 01:47:18;;;;;;;16.00;10.00;;;;;;;;;;5016353;28;20044;-70
2023/05/15 01:49:45;;;;;;;13.88;10.38;;;;;;;;;;5033671;28;20414;-70
2023/05/15 01:52:19;;;;;;;16.45;10.98;;;;;;;;;;5035842;28;20045;-70
2023/05/15 01:54:45;;;;;;;;;;;;;;;;;;5011451;28;20495;-70
2023/05/15 01:57:13;;;;;;;14.38;9.45;;;;;;;;;;5017087;28;20420;-71
2023/05/15 01:59:40;;;;;;;13.18;8.85;;;;;;;;;;5011302;28;20045;-70
2023/05/15 02:02:06;;;;;;;11.75;8.43;;;;;;;;;;5020447;28;20107;-69
2023/05/15 02:04:32;;;;;;;12.40;8.82;;;;;;;;;;5020752;28;20425;-71
2023/05/15 02:07:00;;;;;;;12.63;8.65;;;;;;;;;;5035903;28;20128;-70
2023/05/15 02:09:26;;;;;;;12.60;8.73;;;;;;;;;;5035797;28;20045;-71
2023/05/15 02:11:53;;;;;;;10.88;8.38;;;;;;;;;;5018018;28;20060;-70
2023/05/15 02:14:19;;;;;;;16.27;8.48;;;;;;;;;;5020305;28;20076;-70
2023/05/15 02:16:45;;;;;;;15.00;8.45;;;;;;;;;;5020421;28;20119;-69
2023/05/15 02:19:10;;;;;;;11.82;8.00;;;;;;;;;;5020796;28;20486;-71
2023/05/15 02:21:36;;;;;;;13.68;8.15;;;;;;;;;;5032096;28;20107;-70
2023/05/15 02:24:01;;;;;;;14.10;8.48;;;;;;;;;;5018619;28;20092;-70
2023/05/15 02:26:53;;;;;;;13.13;8.05;;;;;;;;;;5020415;28;20054;-70
2023/05/15 02:29:42;;;;;;;10.77;8.05;;;;;;;;;;5035850;28;20053;-69
2023/05/15 02:32:28;;;;;;;10.90;7.55;;;;;;;;;;4994785;28;20079;-69
2023/05/15 02:35:13;;;;;;;14.55;8.73;;;;;;;;;;5014804;28;20042;-70
2023/05/15 02:37:45;;;;;;;11.90;7.93;;;;;;;;;;5017920;28;20050;-70
2023/05/15 02:40:12;;;;;;;10.98;8.05;;;;;;;;;;5013563;28;20606;-70
2023/05/15 02:42:39;;;;;;;11.57;7.78;;;;;;;;;;5034678;28;20053;-69
2023/05/15 02:45:07;;;;;;;12.77;8.90;;;;;;;;;;5031144;28;20467;-69
2023/05/15 02:47:33;;;;;;;12.95;8.20;;;;;;;;;;5017296;28;20034;-70
2023/05/15 02:50:00;;;;;;;15.55;8.70;;;;;;;;;;5035611;28;20501;-69
2023/05/15 02:52:25;;;;;;;13.27;8.55;;;;;;;;;;5018211;28;20056;-69
2023/05/15 02:54:51;;;;;;;13.23;8.57;;;;;;;;;;5016885;28;20053;-71
2023/05/15 02:57:16;;;;;;;18.65;9.00;;;;;;;;;;5035220;28;20063;-70
2023/05/15 02:59:42;;;;;;;15.10;9.10;;;;;;;;;;5019417;28;20045;-69
2023/05/15 03:02:07;;;;;;;16.05;9.30;;;;;;;;;;5035141;28;20103;-70
2023/05/15 03:04:33;;;;;;;15.80;9.13;;;;;;;;;;5019647;28;20041;-69
2023/05/15 03:06:58;;;;;;;14.25;8.60;;;;;;;;;;5019063;28;20038;-69
2023/05/15 03:09:24;;;;;;;14.18;8.10;;;;;;;;;;5038128;28;20521;-70
2023/05/15 03:11:49;;;;;;;12.63;8.48;;;;;;;;;;5023777;28;20052;-69
2023/05/15 03:14:15;;;;;;;12.48;8.30;;;;;;;;;;5023340;28;20041;-69
2023/05/15 03:16:41;;;;;;;13.23;8.95;;;;;;;;;;5038342;28;20053;-71
2023/05/15 03:19:06;;;;;;;11.75;7.80;;;;;;;;;;5023806;28;20056;-69
2023/05/15 03:21:33;;;;;;;10.45;7.18;;;;;;;;;;5021926;28;20059;-73
2023/05/15 03:23:59;;;;;;;11.25;8.38;;;;;;;;;;5038424;28;20044;-69
2023/05/15 03:26:25;;;;;;;13.13;8.63;;;;;;;;;;5038981;28;20052;-69
2023/05/15 03:28:51;;;;;;;12.07;8.60;;;;;;;;;;5016575;28;20053;-70
2023/05/15 03:31:17;;;;;;;14.85;9.05;;;;;;;;;;5038804;28;20045;-69
2023/05/15 03:33:44;;;;;;;15.93;8.80;;;;;;;;;;5037859;28;20045;-70
2023/05/15 03:36:10;;;;;;;13.75;7.97;;;;;;;;;;5038845;28;20080;-69
2023/05/15 03:38:35;;;;;;;13.27;9.25;;;;;;;;;;5021790;28;20489;-69
2023/05/15 03:41:01;;;;;;;13.88;9.13;;;;;;;;;;5023296;28;20099;-70
2023/05/15 03:43:26;;;;;;;15.40;8.23;;;;;;;;;;5021279;28;20095;-70
2023/05/15 03:45:51;;;;;;;12.13;8.43;;;;;;;;;;5038083;28;20057;-69
2023/05/15 03:48:17;;;;;;;9.75;6.80;;;;;;;;;;5039172;28;20630;-70
2023/05/15 03:50:43;;;;;;;12.45;8.50;;;;;;;;;;5015760;28;20466;-69
2023/05/15 03:53:08;;;;;;;12.98;9.10;;;;;;;;;;5022979;28;20107;-69
2023/05/15 03:55:34;;;;;;;13.35;8.82;;;;;;;;;;5022780;28;20041;-69
2023/05/15 03:58:00;;;;;;;17.63;10.75;;;;;;;;;;5021481;28;20135;-68
2023/05/15 04:00:26;;;;;;;15.50;10.05;;;;;;;;;;5018958;28;20415;-70
2023/05/15 04:02:51;;;;;;;11.82;8.02;;;;;;;;;;5021238;28;20705;-71
2023/05/15 04:05:18;;;;;;;15.02;9.48;;;;;;;;;;5022880;28;20136;-71
2023/05/15 04:07:44;;;;;;;15.60;9.52;;;;;;;;;;5020262;28;20044;-71
2023/05/15 04:10:09;;;;;;;16.48;9.85;;;;;;;;;;5022430;28;20449;-71
2023/05/15 04:12:35;;;;;;;18.17;10.52;;;;;;;;;;5021786;28;20049;-71
2023/05/15 04:15:17;;;;;;;16.38;10.27;;;;;;;;;;5022915;28;20056;-71
2023/05/15 04:17:44;;;;;;;18.23;10.82;;;;;;;;;;5022394;28;20057;-71
2023/05/15 04:20:11;;;;;;;17.98;10.90;;;;;;;;;;5022626;28;20045;-71
2023/05/15 04:22:36;;;;;;;19.45;11.25;;;;;;;;;;5021484;28;20057;-71
2023/05/15 04:25:03;;;;;;;17.10;10.93;;;;;;;;;;5019010;28;20042;-71
2023/05/15 04:27:29;;;;;;;18.42;11.68;;;;;;;;;;5022767;28;20056;-71
2023/05/15 04:29:54;;;;;;;21.48;11.90;;;;;;;;;;5037349;28;20053;-71
2023/05/15 04:32:20;;;;;;;22.35;12.05;;;;;;;;;;5022220;28;20065;-71
2023/05/15 04:34:46;;;;;;;20.38;11.70;;;;;;;;;;5021180;28;20057;-71
2023/05/15 04:37:11;;;;;;;23.30;12.10;;;;;;;;;;5009731;28;20402;-71
2023/05/15 04:39:37;;;;;;;23.83;12.88;;;;;;;;;;5014420;28;20067;-72
2023/05/15 04:42:03;;;;;;;22.58;12.02;;;;;;;;;;5013679;28;20098;-71
2023/05/15 04:44:28;;;;;;;23.10;11.60;;;;;;;;;;5012273;28;20057;-71
2023/05/15 04:46:54;;;;;;;19.65;11.68;;;;;;;;;;5013106;28;20045;-71
2023/05/15 04:49:19;;;;;;;19.15;10.63;;;;;;;;;;5013293;28;20486;-71
2023/05/15 04:51:45;;;;;;;17.30;10.10;;;;;;;;;;5013224;28;20042;-71
2023/05/15 04:54:10;;;;;;;21.73;10.48;;;;;;;;;;5012519;28;20041;-70
2023/05/15 04:56:36;;;;;;;19.48;11.15;;;;;;;;;;5016463;28;20033;-70
2023/05/15 04:59:01;;;;;;;23.35;11.98;;;;;;;;;;5015933;28;20099;-70
2023/05/15 05:01:27;;;;;;;20.73;11.45;;;;;;;;;;5014626;28;20058;-70
2023/05/15 05:03:53;;;;;;;20.23;11.40;;;;;;;;;;5014386;28;20046;-70
2023/05/15 05:06:18;;;;;;;20.65;10.98;;;;;;;;;;5011617;28;20054;-70
2023/05/15 05:08:44;;;;;;;19.30;11.30;;;;;;;;;;5015115;28;20048;-70
2023/05/15 05:11:09;;;;;;;15.93;8.63;;;;;;;;;;5036691;28;20049;-70
2023/05/15 05:13:35;;;;;;;18.92;10.52;;;;;;;;;;5014327;28;21075;-70
2023/05/15 05:16:00;;;;;;;23.48;11.20;;;;;;;;;;5014396;28;20057;-70
2023/05/15 05:18:26;;;;;;;17.98;10.38;;;;;;;;;;5016404;28;20203;-70
2023/05/15 05:21:01;;;;;;;22.77;11.32;;;;;;;;;;5020556;28;20130;-70
2023/05/15 05:23:27;;;;;;;21.33;11.05;;;;;;;;;;5017230;28;20136;-69
2023/05/15 05:25:52;;;;;;;18.50;10.52;;;;;;;;;;5013572;28;23350;-70
2023/05/15 05:28:18;;;;;;;22.45;10.57;;;;;;;;;;5019141;28;20137;-70
2023/05/15 05:30:45;;;;;;;17.10;10.45;;;;;;;;;;5014315;28;20069;-70
2023/05/15 05:33:11;;;;;;;18.08;10.05;;;;;;;;;;5019142;28;20096;-70
2023/05/15 05:35:36;;;;;;;16.80;10.20;;;;;;;;;;5017478;28;20052;-70
2023/05/15 05:38:01;;;;;;;17.83;10.65;;;;;;;;;;5016378;28;20087;-70
2023/05/15 05:40:27;;;;;;;22.27;11.63;;;;;;;;;;5030763;28;20557;-70
2023/05/15 05:42:52;;;;;;;18.13;10.60;;;;;;;;;;5020023;28;20056;-70
2023/05/15 05:45:18;;;;;;;19.08;11.43;;;;;;;;;;5013002;28;20048;-70
2023/05/15 05:47:44;;;;;;;23.77;11.20;;;;;;;;;;5017567;28;20045;-71
2023/05/15 05:50:09;;;;;;;18.17;10.57;;;;;;;;;;5016543;28;20053;-70
2023/05/15 05:52:35;;;;;;;18.23;10.18;;;;;;;;;;5019498;28;20063;-70
2023/05/15 05:55:00;;;;;;;23.35;12.05;;;;;;;;;;5014388;28;20064;-70
2023/05/15 05:57:26;;;;;;;17.80;9.88;;;;;;;;;;5015339;28;20072;-70
2023/05/15 05:59:51;;;;;;;16.95;10.20;;;;;;;;;;5007509;28;20058;-69
2023/05/15 06:02:17;;;;;;;16.00;9.73;;;;;;;;;;5013698;28;20867;-70
2023/05/15 06:04:42;;;;;;;17.13;10.50;;;;;;;;;;5017238;28;20060;-70
2023/05/15 06:07:08;;;;;;;18.17;10.27;;;;;;;;;;5013579;28;20045;-69
2023/05/15 06:09:33;;;;;;;17.85;9.07;;;;;;;;;;5012426;28;20046;-70
2023/05/15 06:11:59;;;;;;;16.85;9.85;;;;;;;;;;5014255;28;20445;-70
2023/05/15 06:14:25;;;;;;;16.73;10.15;;;;;;;;;;5009819;28;20050;-70
2023/05/15 06:16:51;;;;;;;16.52;9.90;;;;;;;;;;5014607;28;20099;-70
2023/05/15 06:19:16;;;;;;;18.55;11.25;;;;;;;;;;5013528;28;20410;-70
2023/05/15 06:21:42;;;;;;;15.77;9.50;;;;;;;;;;5008306;28;20042;-70
2023/05/15 06:24:07;;;;;;;16.65;10.63;;;;;;;;;;5015815;28;20076;-70
2023/05/15 06:26:33;;;;;;;16.00;10.00;;;;;;;;;;5020114;28;20080;-70
2023/05/15 06:28:58;;;;;;;17.48;10.88;;;;;;;;;;5013650;28;20050;-69
2023/05/15 06:31:24;;;;;;;15.95;9.13;;;;;;;;;;5011950;28;20048;-70
2023/05/15 06:33:49;;;;;;;15.45;9.02;;;;;;;;;;5012872;28;20056;-69
2023/05/15 06:36:15;;;;;;;15.10;8.65;;;;;;;;;;5017511;28;20056;-70
2023/05/15 06:38:40;;;;;;;14.52;9.07;;;;;;;;;;5015188;28;20061;-70
2023/05/15 06:41:06;;;;;;;15.00;9.90;;;;;;;;;;5035652;28;20064;-69
2023/05/15 06:43:31;;;;;;;16.73;9.55;;;;;;;;;;5035431;28;20188;-69
2023/05/15 06:45:57;;;;;;;13.18;7.82;;;;;;;;;;5014257;28;20107;-70
2023/05/15 06:48:22;;;;;;;16.85;10.25;;;;;;;;;;5004966;28;20132;-74
2023/05/15 06:50:48;;;;;;;18.35;10.55;;;;;;;;;;5014107;28;20548;-73
2023/05/15 06:53:13;;;;;;;15.32;9.80;;;;;;;;;;5015647;28;20241;-71
2023/05/15 06:55:39;;;;;;;17.08;9.35;;;;;;;;;;5012855;28;20058;-71
2023/05/15 06:58:04;;;;;;;17.05;10.13;;;;;;;;;;5012637;28;20065;-71
2023/05/15 07:00:30;;;;;;;17.02;9.70;;;;;;;;;;5011239;28;20049;-72
2023/05/15 07:02:56;;;;;;;15.80;8.93;;;;;;;;;;5017187;28;20718;-71
2023/05/15 07:05:21;;;;;;;15.27;9.65;;;;;;;;;;5015657;28;20057;-71
2023/05/15 07:07:47;;;;;;;13.23;9.52;;;;;;;;;;5005314;28;20060;-71
2023/05/15 07:10:12;;;;;;;15.60;9.77;;;;;;;;;;5012491;28;20053;-72
2023/05/15 07:12:37;;;;;;;16.20;9.23;;;;;;;;;;5017101;28;20414;-70
2023/05/15 07:15:04;;;;;;;16.23;8.70;;;;;;;;;;5011039;28;20437;-71
2023/05/15 07:17:31;;;;;;;14.85;9.40;;;;;;;;;;5010425;28;20046;-71
2023/05/15 07:19:56;;;;;;;19.33;9.95;;;;;;;;;;5006880;28;20049;-71
2023/05/15 07:22:22;;;;;;;14.43;8.43;;;;;;;;;;5018371;28;20102;-71
2023/05/15 07:24:47;;;;;;;14.80;9.25;;;;;;;;;;5012443;28;20813;-71
2023/05/15 07:27:12;;;;;;;13.77;9.35;;;;;;;;;;5009648;28;20080;-70
2023/05/15 07:29:38;;;;;;;18.23;9.38;;;;;;;;;;5015590;28;20072;-71
2023/05/15 07:32:04;;;;;;;12.30;7.72;;;;;;;;;;5016127;28;20061;-71
2023/05/15 07:34:29;;;;;;;13.65;8.98;;;;;;;;;;5007129;28;20469;-69
2023/05/15 07:36:54;;;;;;;15.85;9.13;;;;;;;;;;5009146;28;20072;-72
2023/05/15 07:39:20;;;;;;;15.80;9.43;;;;;;;;;;5015989;28;20092;-71
2023/05/15 07:41:46;;;;;;;12.98;9.23;;;;;;;;;;5009342;28;20141;-71
2023/05/15 07:44:11;;;;;;;12.30;8.77;;;;;;;;;;5006276;28;20049;-71
2023/05/15 07:46:37;;;;;;;13.82;8.68;;;;;;;;;;5016003;28;20038;-71
2023/05/15 07:49:03;;;;;;;12.75;8.75;;;;;;;;;;5018806;28;20725;-71
2023/05/15 07:51:28;;;;;;;12.48;8.80;;;;;;;;;;5013890;28;20046;-72
2023/05/15 07:53:54;;;;;;;13.10;8.18;;;;;;;;;;5013843;28;20061;-73
2023/05/15 07:56:20;;;;;;;12.18;7.88;;;;;;;;;;5015471;28;20087;-70
2023/05/15 07:58:45;;;;;;;15.40;8.35;;;;;;;;;;5017006;28;20593;-71
2023/05/15 08:01:11;;;;;;;14.05;9.20;;;;;;;;;;5021034;28;20045;-73
2023/05/15 08:03:36;;;;;;;13.10;8.98;;;;;;;;;;5018423;28;21115;-74
2023/05/15 08:06:02;;;;;;;12.57;9.15;;;;;;;;;;5013098;28;20155;-72
2023/05/15 08:08:27;;;;;;;13.10;8.68;;;;;;;;;;5013218;28;20050;-72
2023/05/15 08:10:53;;;;;;;11.93;7.97;;;;;;;;;;5011989;28;20048;-73
2023/05/15 08:13:19;;;;;;;9.93;7.13;;;;;;;;;;5020863;28;20160;-72
2023/05/15 08:15:45;;;;;;;8.70;7.00;;;;;;;;;;5015283;28;20116;-72
2023/05/15 08:18:10;;;;;;;10.05;7.10;;;;;;;;;;5013274;28;20054;-72
2023/05/15 08:20:37;;;;;;;8.40;6.88;;;;;;;;;;5016051;28;20388;-72
2023/05/15 08:23:02;;;;;;;8.85;6.95;;;;;;;;;;5018581;28;20418;-72
2023/05/15 08:25:28;;;;;;;10.20;7.63;;;;;;;;;;5014008;28;20495;-72
2023/05/15 08:27:53;;;;;;;8.80;6.78;;;;;;;;;;5013440;28;20465;-72
2023/05/15 08:30:19;;;;;;;10.40;7.63;;;;;;;;;;5015995;28;20042;-71
2023/05/15 08:32:45;;;;;;;9.02;7.15;;;;;;;;;;5015148;28;20198;-70
2023/05/15 08:35:10;;;;;;;10.05;7.95;;;;;;;;;;5014459;28;20049;-71
2023/05/15 08:37:36;;;;;;;8.32;6.35;;;;;;;;;;5014645;28;20060;-71
2023/05/15 08:40:04;;;;;;;10.35;7.60;;;;;;;;;;5017474;28;20651;-71
2023/05/15 08:42:49;;;;;;;9.10;7.07;;;;;;;;;;4996780;28;20439;-70
2023/05/15 08:45:14;;;;;;;7.68;5.80;;;;;;;;;;5014490;28;20076;-70
2023/05/15 08:47:41;;;;;;;5.97;5.22;;;;;;;;;;5012200;28;20500;-71
2023/05/15 08:50:14;;;;;;;7.03;5.65;;;;;;;;;;5013435;28;20160;-69
2023/05/15 08:52:47;;;;;;;8.88;5.40;;;;;;;;;;5012241;28;20491;-70
2023/05/15 08:55:13;;;;;;;10.25;6.03;;;;;;;;;;5015075;28;20049;-70
2023/05/15 08:57:39;;;;;;;6.53;5.00;;;;;;;;;;5012857;28;20128;-70
2023/05/15 09:00:10;;;;;;;6.03;5.00;;;;;;;;;;5014262;28;20069;-71
2023/05/15 09:02:37;;;;;;;7.90;5.18;;;;;;;;;;5015159;28;20061;-72
2023/05/15 09:05:03;;;;;;;6.78;4.63;;;;;;;;;;5013418;28;20046;-73
2023/05/15 09:07:30;;;;;;;5.30;4.72;;;;;;;;;;5011536;28;20037;-73
2023/05/15 09:09:57;;;;;;;5.78;4.50;;;;;;;;;;5014185;28;20058;-73
2023/05/15 09:12:24;;;;;;;4.97;4.30;;;;;;;;;;5014105;28;20060;-72
2023/05/15 09:14:50;;;;;;;6.22;4.93;;;;;;;;;;5014242;28;20092;-72
2023/05/15 09:17:15;;;;;;;5.60;4.47;;;;;;;;;;5022102;28;20826;-71
2023/05/15 09:19:42;;;;;;;5.85;4.03;;;;;;;;;;5014217;28;20042;-72
2023/05/15 09:22:21;;;;;;;4.68;4.18;;;;;;;;;;5007778;28;20112;-72
2023/05/15 09:24:48;;;;;;;4.47;4.03;;;;;;;;;;5019976;28;20048;-72
2023/05/15 09:27:13;;;;;;;6.43;3.90;;;;;;;;;;5009004;28;20042;-71
2023/05/15 09:29:40;;;;;;;4.38;3.97;;;;;;;;;;5016821;28;20057;-69
2023/05/15 09:32:11;;;;;;;4.47;3.58;;;;;;;;;;5017513;28;20053;-70
2023/05/15 09:34:39;;;;;;;6.93;3.80;;;;;;;;;;5008118;28;20061;-70
2023/05/15 09:37:07;;;;;;;4.25;3.85;;;;;;;;;;5036670;28;20453;-70
2023/05/15 09:39:39;;;;;;;4.22;3.75;;;;;;;;;;5013932;28;20114;-70
2023/05/15 09:42:06;;;;;;;6.20;4.00;;;;;;;;;;5017941;28;20053;-70
2023/05/15 09:44:33;;;;;;;5.63;3.80;;;;;;;;;;5017280;28;20041;-70
2023/05/15 09:46:59;;;;;;;4.75;3.72;;;;;;;;;;5013400;28;20126;-70
2023/05/15 09:49:26;;;;;;;3.80;3.38;;;;;;;;;;5018715;28;20589;-71
2023/05/15 09:51:54;;;;;;;4.15;3.45;;;;;;;;;;5016387;28;20037;-70
2023/05/15 09:54:22;;;;;;;4.53;3.75;;;;;;;;;;5011939;28;20438;-70
2023/05/15 09:56:48;;;;;;;5.25;4.28;;;;;;;;;;5016085;28;20137;-70
2023/05/15 09:59:15;;;;;;;4.20;3.80;;;;;;;;;;5011308;28;20140;-70
2023/05/15 10:01:45;;;;;;;6.50;3.42;;;;;;;;;;5009425;28;20145;-69
2023/05/15 10:04:11;;;;;;;4.03;3.58;;;;;;;;;;5012142;28;20528;-70
2023/05/15 10:06:38;;;;;;;6.32;3.67;;;;;;;;;;5015221;28;20057;-70
2023/05/15 10:09:05;;;;;;;3.95;3.60;;;;;;;;;;5015653;28;20128;-70
2023/05/15 10:11:33;;;;;;;6.28;3.70;;;;;;;;;;5012544;28;20067;-69
2023/05/15 10:13:59;;;;;;;6.38;3.70;;;;;;;;;;5014774;28;20073;-69
2023/05/15 10:16:27;;;;;;;5.53;3.55;;;;;;;;;;5019277;28;20388;-71
2023/05/15 10:18:52;;;;;;;4.03;3.58;;;;;;;;;;5017710;28;20050;-71
2023/05/15 10:21:21;;;;;;;4.03;3.63;;;;;;;;;;5020618;28;20045;-71
2023/05/15 10:23:49;;;;;;;4.13;3.72;;;;;;;;;;5019266;28;20049;-69
2023/05/15 10:26:21;;;;;;;7.25;3.83;;;;;;;;;;5011528;28;20175;-69
2023/05/15 10:28:47;;;;;;;3.60;3.30;;;;;;;;;;5020434;28;20056;-69
2023/05/15 10:31:12;;;;;;;5.63;3.70;;;;;;;;;;5017826;28;20041;-70
2023/05/15 10:33:39;;;;;;;6.22;4.07;;;;;;;;;;5012574;28;20104;-70
2023/05/15 10:36:06;;;;;;;3.65;3.35;;;;;;;;;;5010696;28;20226;-70
2023/05/15 10:38:31;;;;;;;5.78;3.42;;;;;;;;;;5011012;28;20054;-69
2023/05/15 10:40:59;;;;;;;5.82;3.33;;;;;;;;;;5014915;28;20034;-69
2023/05/15 10:43:27;;;;;;;5.38;3.45;;;;;;;;;;5011996;28;20144;-71
2023/05/15 10:45:54;;;;;;;4.13;3.20;;;;;;;;;;5018912;28;20519;-70
2023/05/15 10:48:20;;;;;;;5.18;3.28;;;;;;;;;;5016607;28;20133;-69
2023/05/15 10:50:47;;;;;;;3.88;3.03;;;;;;;;;;5011078;28;20046;-69
2023/05/15 10:53:13;;;;;;;3.08;2.78;;;;;;;;;;5016252;28;20091;-69
2023/05/15 10:55:39;;;;;;;3.33;2.97;;;;;;;;;;5016620;28;20478;-70
2023/05/15 10:58:09;;;;;;;3.13;2.92;;;;;;;;;;5012821;28;20140;-70
2023/05/15 11:00:41;;;;;;;4.10;3.47;;;;;;;;;;5010250;28;20045;-69
2023/05/15 11:03:07;;;;;;;3.53;3.22;;;;;;;;;;5017023;28;20675;-69
2023/05/15 11:06:11;;;;;;;3.28;2.95;;;;;;;;;;5015118;28;20052;-70
2023/05/15 11:08:41;;;;;;;5.30;3.30;;;;;;;;;;5028747;28;20060;-70
2023/05/15 11:11:07;;;;;;;6.25;3.45;;;;;;;;;;5013687;28;20123;-70
2023/05/15 11:14:03;;;;;;;5.88;2.88;;;;;;;;;;5012016;28;20085;-70
2023/05/15 11:16:51;;;;;;;3.45;3.15;;;;;;;;;;5019949;28;20744;-71
2023/05/15 11:19:23;;;;;;;3.50;3.00;;;;;;;;;;5019972;28;20085;-70
2023/05/15 11:22:02;;;;;;;3.22;2.97;;;;;;;;;;5015114;28;21544;-70
2023/05/15 11:24:45;;;;;;;3.35;3.05;;;;;;;;;;5018971;28;20564;-70
2023/05/15 11:27:12;;;;;;;3.78;3.47;;;;;;;;;;5033267;28;20041;-70
2023/05/15 11:30:03;;;;;;;3.65;3.35;;;;;;;;;;5016479;28;20048;-72
2023/05/15 11:32:41;;;;;;;5.43;3.25;;;;;;;;;;5020646;28;20085;-70
2023/05/15 11:35:16;;;;;;;3.75;3.13;;;;;;;;;;5016540;28;20518;-69
2023/05/15 11:37:48;;;;;;;5.60;3.90;;;;;;;;;;5017539;28;20525;-71
2023/05/15 11:40:19;;;;;;;7.53;4.50;;;;;;;;;;5030800;28;20057;-71
2023/05/15 11:43:15;;;;;;;5.73;3.93;;;;;;;;;;5012733;28;20063;-70
2023/05/15 11:45:42;;;;;;;4.28;3.88;;;;;;;;;;5015886;28;20052;-68
2023/05/15 11:48:12;;;;;;;5.53;4.00;;;;;;;;;;5016396;28;20041;-69
2023/05/15 11:50:37;;;;;;;5.05;2.53;;;;;;;;;;5015288;28;20038;-70
2023/05/15 11:53:07;;;;;;;3.00;2.75;;;;;;;;;;5015186;28;20055;-70
2023/05/15 11:55:34;;;;;;;2.55;2.35;;;;;;;;;;5016067;28;20409;-70
2023/05/15 11:58:00;;;;;;;3.65;2.75;;;;;;;;;;5014842;28;20414;-69
2023/05/15 12:00:25;;;;;;;2.97;2.65;;;;;;;;;;5018453;28;20502;-69
2023/05/15 12:02:51;;;;;;;2.50;2.30;;;;;;;;;;5020077;28;20061;-70
2023/05/15 12:05:16;;;;;;;2.70;2.50;;;;;;;;;;5036719;28;20071;-69
2023/05/15 12:07:42;;;;;;;4.28;2.67;;;;;;;;;;5020933;28;20124;-70
2023/05/15 12:10:11;;;;;;;2.83;2.63;;;;;;;;;;5017228;28;20045;-69
2023/05/15 12:12:44;;;;;;;3.30;2.75;;;;;;;;;;5015222;28;20045;-70
2023/05/15 12:15:15;;;;;;;5.97;3.22;;;;;;;;;;5009060;28;20029;-70
2023/05/15 12:17:43;;;;;;;4.80;3.10;;;;;;;;;;5013533;28;20056;-70
2023/05/15 12:20:18;;;;;;;3.40;2.80;;;;;;;;;;5011324;28;20056;-70
2023/05/15 12:22:44;;;;;;;7.50;2.42;;;;;;;;;;5013303;28;20049;-70
2023/05/15 12:25:11;;;;;;;3.85;2.80;;;;;;;;;;5013454;28;20072;-69
2023/05/15 12:27:38;;;;;;;7.75;2.88;;;;;;;;;;5013579;28;20049;-68
2023/05/15 12:30:05;;;;;;;2.92;2.65;;;;;;;;;;5013546;28;20072;-70
2023/05/15 12:32:32;;;;;;;3.00;2.70;;;;;;;;;;5018869;28;20398;-69
2023/05/15 12:34:59;;;;;;;2.70;2.17;;;;;;;;;;5015268;28;20048;-68
2023/05/15 12:37:25;;;;;;;2.33;2.00;;;;;;;;;;5015214;28;20544;-72
2023/05/15 12:39:52;;;;;;;2.72;2.53;;;;;;;;;;5034231;28;20049;-73
2023/05/15 12:42:17;;;;;;;2.25;2.05;;;;;;;;;;5011629;28;20696;-69
2023/05/15 12:44:43;;;;;;;1.65;1.55;;;;;;;;;;5015419;28;20163;-71
2023/05/15 12:47:08;;;;;;;3.10;2.00;;;;;;;;;;5014752;28;20046;-71
2023/05/15 12:49:37;;;;;;;2.47;2.28;;;;;;;;;;5015844;28;20576;-72
2023/05/15 12:52:14;;;;;;;5.35;2.03;;;;;;;;;;5009498;28;20049;-70
2023/05/15 12:54:40;;;;;;;2.35;2.13;;;;;;;;;;5012900;28;20052;-71
2023/05/15 12:57:07;;;;;;;1.80;1.55;;;;;;;;;;5015910;28;20092;-70
2023/05/15 12:59:33;;;;;;;3.72;1.90;;;;;;;;;;5010669;28;20045;-71
2023/05/15 13:01:58;;;;;;;3.63;2.03;;;;;;;;;;5011998;28;20122;-70
2023/05/15 13:04:24;;;;;;;3.45;1.95;;;;;;;;;;5007124;28;20749;-70
2023/05/15 13:06:49;;;;;;;2.35;2.15;;;;;;;;;;5012485;28;20052;-71
2023/05/15 13:09:21;;;;;;;4.88;2.20;;;;;;;;;;5010686;28;20041;-72
2023/05/15 13:11:47;;;;;;;;;;;;;;;;;;5011506;28;20403;-72
2023/05/15 13:14:16;;;;;;;3.53;2.30;;;;;;;;;;5011136;28;19921;-72
2023/05/15 13:16:42;;;;;;;2.85;2.20;;;;;;;;;;5012672;28;20422;-71
2023/05/15 13:19:08;;;;;;;3.22;2.08;;;;;;;;;;5011019;28;20046;-69
2023/05/15 13:21:34;;;;;;;3.20;2.90;;;;;;;;;;5006169;28;20049;-70
2023/05/15 13:24:00;;;;;;;3.30;3.00;;;;;;;;;;5010242;28;20049;-69
2023/05/15 13:26:25;;;;;;;4.40;2.67;;;;;;;;;;5012127;28;20520;-70
2023/05/15 13:28:50;;;;;;;3.92;3.00;;;;;;;;;;5011565;28;20077;-70
2023/05/15 13:31:16;;;;;;;2.60;2.40;;;;;;;;;;5010977;28;20113;-70
2023/05/15 13:33:42;;;;;;;3.38;3.05;;;;;;;;;;5013273;28;20081;-69
2023/05/15 13:36:07;;;;;;;3.75;2.85;;;;;;;;;;5013549;28;20451;-70
2023/05/15 13:38:33;;;;;;;3.00;2.70;;;;;;;;;;5012182;28;20049;-70
2023/05/15 13:40:58;;;;;;;3.03;2.72;;;;;;;;;;5013691;28;20495;-68
2023/05/15 13:43:24;;;;;;;2.60;2.40;;;;;;;;;;5011652;28;20053;-68
2023/05/15 13:45:49;;;;;;;2.80;2.60;;;;;;;;;;5015197;28;20045;-68
2023/05/15 13:48:15;;;;;;;3.08;2.40;;;;;;;;;;5017688;28;20570;-68
2023/05/15 13:50:42;;;;;;;5.18;2.97;;;;;;;;;;5016140;28;20044;-69
2023/05/15 13:53:07;;;;;;;2.42;2.22;;;;;;;;;;5012971;28;20053;-69
2023/05/15 13:55:33;;;;;;;2.55;1.92;;;;;;;;;;5016428;28;20080;-69
2023/05/15 13:57:59;;;;;;;2.03;1.88;;;;;;;;;;5011884;28;20049;-69
2023/05/15 14:00:25;;;;;;;2.28;1.90;;;;;;;;;;5012054;28;20132;-68
2023/05/15 14:02:50;;;;;;;3.42;1.20;;;;;;;;;;5012872;28;20212;-68
2023/05/15 14:05:17;;;;;;;1.65;1.55;;;;;;;;;;5013520;28;20156;-68
2023/05/15 14:07:42;;;;;;;2.03;1.27;;;;;;;;;;5019984;28;20076;-69
2023/05/15 14:10:09;;;;;;;2.92;1.60;;;;;;;;;;5020501;28;20565;-69
2023/05/15 14:12:35;;;;;;;3.72;1.67;;;;;;;;;;5013549;28;20041;-70
2023/05/15 14:15:01;;;;;;;1.67;1.58;;;;;;;;;;5013028;28;20041;-69
2023/05/15 14:17:27;;;;;;;3.33;1.60;;;;;;;;;;5018140;28;20445;-69
2023/05/15 14:19:52;;;;;;;1.33;1.23;;;;;;;;;;5018460;28;20124;-69
2023/05/15 14:22:18;;;;;;;2.28;1.40;;;;;;;;;;5019720;28;21014;-68
2023/05/15 14:24:44;;;;;;;1.30;1.20;;;;;;;;;;5017085;28;20666;-68
2023/05/15 14:27:09;;;;;;;2.00;1.40;;;;;;;;;;5020080;28;20513;-69
2023/05/15 14:29:34;;;;;;;1.60;1.50;;;;;;;;;;5019457;28;20041;-69
2023/05/15 14:32:00;;;;;;;1.33;1.20;;;;;;;;;;5020057;28;20795;-70
2023/05/15 14:34:26;;;;;;;1.50;1.20;;;;;;;;;;5010612;28;20476;-69
2023/05/15 14:36:51;;;;;;;1.20;1.10;;;;;;;;;;5016161;28;20041;-69